Time;durP1;ratioP1;P1;durP2;ratioP2;P2;SDS_P1;SDS_P2;PMS_P1;PMS_P2;Temp;Humidity;BMP_temperature;BMP_pressure;BME280_temperature;BME280_humidity;BME280_pressure;Samples;Min_cycle;Max_cycle;Signal;HPM_P1;HPM_P2
2022/03/31 00:00:18;;;;;;;2.58;1.67;;;;;;;2.11;91.72;100311.28;5022616;28;20041;-37
2022/03/31 00:02:44;;;;;;;2.88;1.80;;;;;;;2.17;92.49;100317.84;5026602;28;20037;-38
2022/03/31 00:05:10;;;;;;;2.65;1.63;;;;;;;2.16;92.07;100316.16;5018005;28;20034;-37
2022/03/31 00:07:35;;;;;;;1.92;1.60;;;;;;;2.21;92.21;100313.91;5030489;28;20086;-36
2022/03/31 00:10:01;;;;;;;3.20;1.67;;;;;;;2.19;91.59;100315.88;5016770;28;20033;-36
2022/03/31 00:12:26;;;;;;;3.00;1.80;;;;;;;2.20;91.90;100310.41;5022162;28;20181;-36
2022/03/31 00:14:52;;;;;;;2.65;1.60;;;;;;;2.22;92.07;100307.63;5020710;28;20017;-34
2022/03/31 00:17:18;;;;;;;3.15;1.83;;;;;;;2.20;92.58;100306.94;5028666;28;20054;-36
2022/03/31 00:19:43;;;;;;;2.08;1.67;;;;;;;2.15;92.14;100303.84;5014966;28;20018;-36
2022/03/31 00:22:27;;;;;;;2.10;1.70;;;;;;;2.12;91.73;100306.78;5015547;28;20068;-37
2022/03/31 00:24:53;;;;;;;2.83;1.70;;;;;;;2.03;91.52;100295.22;5008245;28;20026;-34
2022/03/31 00:27:19;;;;;;;3.47;1.70;;;;;;;1.95;91.25;100289.78;5018188;28;20026;-36
2022/03/31 00:29:44;;;;;;;1.98;1.48;;;;;;;1.86;90.94;100302.03;5014114;28;20030;-37
2022/03/31 00:32:10;;;;;;;2.15;1.38;;;;;;;1.85;91.64;100295.06;5014358;28;20041;-41
2022/03/31 00:34:35;;;;;;;3.38;1.50;;;;;;;1.80;91.28;100293.81;5008286;28;20039;-40
2022/03/31 00:37:01;;;;;;;2.40;1.48;;;;;;;1.80;92.05;100297.28;5006522;28;20110;-39
2022/03/31 00:39:29;;;;;;;1.73;1.50;;;;;;;1.74;91.85;100303.16;5007879;28;20022;-41
2022/03/31 00:41:55;;;;;;;1.52;1.30;;;;;;;1.72;91.90;100299.81;4999961;28;20040;-41
2022/03/31 00:44:20;;;;;;;1.85;1.52;;;;;;;1.69;91.60;100295.63;4999546;28;20035;-40
2022/03/31 00:46:47;;;;;;;2.40;1.58;;;;;;;1.67;92.26;100304.69;4997608;28;20479;-40
2022/03/31 00:49:13;;;;;;;3.13;1.90;;;;;;;1.69;93.20;100305.41;4998298;28;20033;-40
2022/03/31 00:51:38;;;;;;;1.80;1.55;;;;;;;1.66;93.14;100300.34;4997837;28;20445;-42
2022/03/31 00:54:04;;;;;;;2.33;1.80;;;;;;;1.64;93.31;100289.88;4997130;28;20027;-41
2022/03/31 00:56:30;;;;;;;3.10;2.03;;;;;;;1.64;92.93;100294.34;4996207;28;20038;-42
2022/03/31 00:58:55;;;;;;;2.65;1.85;;;;;;;1.58;93.07;100290.44;4996639;28;20062;-42
2022/03/31 01:01:21;;;;;;;1.65;1.50;;;;;;;1.58;92.75;100298.41;4993000;28;20331;-40
2022/03/31 01:03:46;;;;;;;3.45;1.67;;;;;;;1.58;93.35;100292.22;4997653;28;20033;-40
2022/03/31 01:06:11;;;;;;;2.75;1.60;;;;;;;1.55;93.10;100290.69;4997645;28;20066;-40
2022/03/31 01:08:37;;;;;;;5.20;1.85;;;;;;;1.48;93.16;100279.81;4999035;28;20023;-39
2022/03/31 01:11:02;;;;;;;3.40;1.75;;;;;;;1.47;93.10;100270.16;4996353;28;20045;-39
2022/03/31 01:13:28;;;;;;;2.63;1.70;;;;;;;1.44;93.47;100272.25;4997154;28;20026;-40
2022/03/31 01:15:54;;;;;;;2.80;1.90;;;;;;;1.43;93.64;100268.78;4998826;28;20030;-40
2022/03/31 01:18:20;;;;;;;3.80;1.80;;;;;;;1.43;93.59;100279.38;4994594;28;20434;-40
2022/03/31 01:20:46;;;;;;;2.30;1.85;;;;;;;1.41;93.92;100280.50;4998993;28;20080;-40
2022/03/31 01:23:14;;;;;;;4.82;1.90;;;;;;;1.44;94.21;100270.44;4999234;28;20045;-40
2022/03/31 01:25:39;;;;;;;4.90;2.08;;;;;;;1.46;94.19;100278.28;4997917;28;20099;-40
2022/03/31 01:28:05;;;;;;;2.50;1.92;;;;;;;1.46;94.23;100271.16;4997271;28;20026;-39
2022/03/31 01:30:30;;;;;;;2.40;1.73;;;;;;;1.47;94.45;100275.47;4998811;28;20057;-39
2022/03/31 01:32:56;;;;;;;4.30;2.30;;;;;;;1.47;94.33;100258.72;4996839;28;20488;-40
2022/03/31 01:35:21;;;;;;;5.55;2.35;;;;;;;1.45;94.61;100266.84;4984142;28;20026;-40
2022/03/31 01:37:47;;;;;;;5.78;2.55;;;;;;;1.45;94.34;100266.84;5003427;28;20048;-39
2022/03/31 01:40:13;;;;;;;3.10;2.10;;;;;;;1.47;94.53;100267.50;5016161;28;20097;-37
2022/03/31 01:42:40;;;;;;;4.68;2.10;;;;;;;1.49;94.93;100262.06;5003069;28;20121;-39
2022/03/31 01:45:10;;;;;;;2.80;2.27;;;;;;;1.51;94.82;100262.78;4994463;28;20050;-39
2022/03/31 01:47:36;;;;;;;3.47;1.92;;;;;;;1.48;94.94;100265.72;5001162;28;20444;-38
2022/03/31 01:50:02;;;;;;;4.28;2.40;;;;;;;1.50;95.04;100258.44;4989272;28;20042;-38
2022/03/31 01:52:28;;;;;;;4.75;2.67;;;;;;;1.48;95.17;100250.63;5000101;28;20026;-37
2022/03/31 01:54:54;;;;;;;4.47;2.10;;;;;;;1.49;94.91;100257.59;4996493;28;20035;-38
2022/03/31 01:57:19;;;;;;;3.38;2.38;;;;;;;1.45;95.01;100256.22;4994884;28;20027;-40
2022/03/31 01:59:44;;;;;;;2.45;2.20;;;;;;;1.50;95.17;100245.19;5007894;28;20048;-40
2022/03/31 02:02:14;;;;;;;2.00;1.73;;;;;;;1.47;95.33;100248.13;5009503;28;20029;-39
2022/03/31 02:04:41;;;;;;;6.03;1.80;;;;;;;1.46;95.35;100246.44;4993618;28;20065;-40
2022/03/31 02:07:07;;;;;;;4.82;2.45;;;;;;;1.48;95.26;100255.94;5022804;22;20161;-36
2022/03/31 02:09:33;;;;;;;3.15;2.03;;;;;;;1.54;95.86;100254.56;4964960;28;20031;-36
2022/03/31 02:11:58;;;;;;;3.75;2.70;;;;;;;1.55;95.58;100237.66;4975947;28;20396;-34
2022/03/31 02:14:24;;;;;;;4.15;2.30;;;;;;;1.53;95.51;100248.41;4969706;28;20089;-35
2022/03/31 02:16:50;;;;;;;6.18;2.17;;;;;;;1.51;95.37;100254.84;4968220;28;20031;-35
2022/03/31 02:19:17;;;;;;;5.70;2.95;;;;;;;1.49;95.30;100254.13;4967017;28;20412;-35
2022/03/31 02:21:43;;;;;;;5.60;2.42;;;;;;;1.48;95.55;100245.34;4968177;28;20089;-35
2022/03/31 02:24:09;;;;;;;2.55;2.25;;;;;;;1.45;95.52;100245.63;4967585;28;20096;-34
2022/03/31 02:26:35;;;;;;;3.45;2.45;;;;;;;1.48;95.64;100244.50;4969612;28;20023;-36
2022/03/31 02:29:03;;;;;;;2.67;2.05;;;;;;;1.49;95.35;100233.75;4969356;28;20524;-37
2022/03/31 02:31:28;;;;;;;6.28;2.22;;;;;;;1.50;95.60;100232.78;4967736;28;20027;-34
2022/03/31 02:33:54;;;;;;;4.18;2.30;;;;;;;1.48;95.72;100234.72;4969429;28;20030;-34
2022/03/31 02:36:19;;;;;;;6.10;2.40;;;;;;;1.50;95.97;100235.44;4969055;28;20168;-34
2022/03/31 02:38:44;;;;;;;2.45;2.15;;;;;;;1.47;95.97;100230.38;4969277;28;20050;-36
2022/03/31 02:41:10;;;;;;;4.13;2.65;;;;;;;1.48;95.57;100231.25;4951606;28;20395;-35
2022/03/31 02:43:35;;;;;;;7.70;2.80;;;;;;;1.45;95.83;100228.84;4951324;28;20504;-34
2022/03/31 02:46:01;;;;;;;5.07;3.20;;;;;;;1.40;95.95;100213.38;4969211;28;20035;-36
2022/03/31 02:48:26;;;;;;;6.45;3.83;;;;;;;1.41;95.86;100217.69;4967834;28;20413;-35
2022/03/31 02:50:52;;;;;;;4.68;3.58;;;;;;;1.40;95.46;100216.03;4952015;28;20031;-35
2022/03/31 02:56:02;;;;;;;8.52;3.88;;;;;;;1.45;95.48;100212.94;4969106;28;20050;-36
2022/03/31 02:58:27;;;;;;;6.70;3.78;;;;;;;1.44;95.93;100205.97;4967576;28;20031;-35
2022/03/31 03:00:52;;;;;;;6.22;3.22;;;;;;;1.45;95.73;100203.19;4968783;28;20083;-34
2022/03/31 03:03:19;;;;;;;7.30;3.33;;;;;;;1.44;96.11;100204.16;4968609;28;20034;-34
2022/03/31 03:05:45;;;;;;;5.13;3.20;;;;;;;1.47;96.10;100209.16;4963502;28;20501;-35
2022/03/31 03:08:11;;;;;;;4.13;3.20;;;;;;;1.50;96.37;100205.41;5008033;28;20092;-34
2022/03/31 03:10:37;;;;;;;4.60;2.90;;;;;;;1.56;96.69;100199.56;4967922;28;20066;-35
2022/03/31 03:13:03;;;;;;;7.45;3.55;;;;;;;1.59;96.93;100195.78;4966920;28;20041;-34
2022/03/31 03:15:28;;;;;;;6.32;3.42;;;;;;;1.64;96.77;100198.88;4967275;28;20027;-34
2022/03/31 03:17:54;;;;;;;5.90;3.58;;;;;;;1.69;97.45;100199.28;4968701;28;20046;-34
2022/03/31 03:20:19;;;;;;;9.23;3.28;;;;;;;1.67;97.19;100198.59;4966630;28;20084;-33
2022/03/31 03:22:47;;;;;;;4.82;3.53;;;;;;;1.71;97.14;100199.97;4951185;28;20050;-32
2022/03/31 03:25:13;;;;;;;4.78;3.50;;;;;;;1.79;97.30;100201.91;4968538;28;20034;-31
2022/03/31 03:27:39;;;;;;;5.72;3.10;;;;;;;1.79;97.24;100197.47;4967490;28;20058;-32
2022/03/31 03:30:06;;;;;;;4.70;2.88;;;;;;;1.82;96.93;100193.66;4969971;28;20434;-31
2022/03/31 03:32:31;;;;;;;4.43;3.08;;;;;;;1.79;96.70;100192.16;4971452;28;20236;-30
2022/03/31 03:34:57;;;;;;;4.68;2.70;;;;;;;1.80;96.75;100190.34;4971827;28;20037;-30
2022/03/31 03:37:22;;;;;;;3.63;3.08;;;;;;;1.84;96.85;100202.31;4971837;28;20019;-31
2022/03/31 03:39:47;;;;;;;3.67;2.70;;;;;;;1.88;96.76;100193.13;4971854;28;20027;-32
2022/03/31 03:42:13;;;;;;;4.53;2.97;;;;;;;1.87;96.71;100194.06;4970284;28;20035;-31
2022/03/31 03:44:38;;;;;;;4.90;2.80;;;;;;;1.91;96.96;100193.66;4971784;28;20035;-31
2022/03/31 03:47:04;;;;;;;7.93;2.92;;;;;;;1.82;96.74;100191.88;4971804;28;20042;-30
2022/03/31 03:49:30;;;;;;;4.00;2.92;;;;;;;1.82;96.65;100191.88;4971766;28;20070;-32
2022/03/31 03:51:55;;;;;;;6.53;3.28;;;;;;;1.95;96.39;100194.22;4971596;28;20110;-29
2022/03/31 03:54:21;;;;;;;4.15;2.90;;;;;;;1.93;96.58;100189.06;4970104;28;20031;-31
2022/03/31 03:56:47;;;;;;;5.60;3.30;;;;;;;1.95;96.31;100189.75;4971673;28;20049;-32
2022/03/31 03:59:13;;;;;;;4.90;2.90;;;;;;;2.01;96.71;100187.50;4970058;28;20071;-31
2022/03/31 04:01:38;;;;;;;7.60;3.40;;;;;;;2.05;96.59;100188.88;4970311;28;20027;-30
2022/03/31 04:04:04;;;;;;;6.50;3.10;;;;;;;2.04;96.56;100184.56;4971372;28;20034;-31
2022/03/31 04:06:30;;;;;;;5.82;3.22;;;;;;;2.07;96.18;100185.09;4969888;28;20058;-32
2022/03/31 04:08:55;;;;;;;4.15;3.35;;;;;;;2.04;96.41;100185.41;4970825;28;20453;-30
2022/03/31 04:11:21;;;;;;;8.90;3.17;;;;;;;2.05;96.74;100178.28;4971094;28;20027;-30
2022/03/31 04:13:46;;;;;;;6.55;3.40;;;;;;;2.14;96.43;100188.03;4969923;28;20034;-30
2022/03/31 04:16:11;;;;;;;9.40;3.70;;;;;;;2.11;96.48;100185.69;4970798;28;20026;-30
2022/03/31 04:18:38;;;;;;;6.95;3.50;;;;;;;2.06;96.62;100188.75;4971295;28;20038;-30
2022/03/31 04:21:03;;;;;;;8.98;3.58;;;;;;;2.11;96.28;100188.34;4969795;28;20041;-30
2022/03/31 04:23:29;;;;;;;12.18;4.03;;;;;;;2.16;97.18;100189.56;4971032;28;20108;-30
2022/03/31 04:25:54;;;;;;;6.95;4.25;;;;;;;2.16;96.74;100188.75;4969716;28;20026;-32
2022/03/31 04:28:20;;;;;;;10.23;4.47;;;;;;;2.16;96.55;100186.09;4970062;28;20031;-31
2022/03/31 04:30:45;;;;;;;10.27;4.38;;;;;;;2.19;97.05;100191.09;4969978;28;20031;-32
2022/03/31 04:33:10;;;;;;;8.13;4.22;;;;;;;2.27;96.83;100188.56;4970567;28;20035;-31
2022/03/31 04:35:36;;;;;;;12.20;4.72;;;;;;;2.22;96.55;100179.38;4969404;28;20128;-29
2022/03/31 04:38:02;;;;;;;7.15;4.60;;;;;;;2.23;96.55;100179.19;4970609;28;20555;-29
2022/03/31 04:40:28;;;;;;;12.43;4.88;;;;;;;2.28;96.05;100171.63;4970349;28;20062;-30
2022/03/31 04:42:53;;;;;;;11.40;4.25;;;;;;;2.22;96.80;100169.56;4951970;28;20104;-31
2022/03/31 04:45:18;;;;;;;7.50;4.43;;;;;;;2.24;96.31;100167.63;4969976;28;20085;-30
2022/03/31 04:47:44;;;;;;;15.60;5.13;;;;;;;2.26;96.62;100180.72;4969381;28;20035;-30
2022/03/31 04:50:10;;;;;;;9.27;4.47;;;;;;;2.24;96.01;100177.38;4970471;28;20042;-28
2022/03/31 04:52:35;;;;;;;9.57;5.00;;;;;;;2.29;95.95;100173.34;4969266;28;20461;-28
2022/03/31 04:55:00;;;;;;;10.50;4.57;;;;;;;2.24;96.07;100172.94;4953014;28;20040;-31
2022/03/31 04:57:26;;;;;;;9.68;5.13;;;;;;;2.25;96.32;100163.13;4968891;28;20041;-32
2022/03/31 04:59:51;;;;;;;11.73;4.95;;;;;;;2.27;96.21;100175.28;4969457;28;20055;-30
2022/03/31 05:02:18;;;;;;;11.50;6.03;;;;;;;2.25;95.39;100174.59;4968636;28;20061;-29
2022/03/31 05:04:43;;;;;;;12.88;5.63;;;;;;;2.29;96.03;100177.78;4970829;28;20382;-30
2022/03/31 05:07:09;;;;;;;14.43;5.85;;;;;;;2.29;95.61;100177.78;4969538;28;20047;-30
2022/03/31 05:09:35;;;;;;;12.75;5.75;;;;;;;2.25;95.98;100169.28;4970380;28;20488;-31
2022/03/31 05:12:00;;;;;;;11.50;5.70;;;;;;;2.23;95.80;100170.41;4969830;28;20579;-31
2022/03/31 05:14:25;;;;;;;13.18;5.68;;;;;;;2.22;96.41;100172.22;4970443;28;20062;-30
2022/03/31 05:16:52;;;;;;;14.32;8.48;;;;;;;2.23;96.08;100171.22;4970263;28;20497;-30
2022/03/31 05:19:18;;;;;;;11.82;6.88;;;;;;;2.22;95.67;100172.22;4969053;28;20073;-30
2022/03/31 05:21:43;;;;;;;11.55;5.13;;;;;;;2.21;96.13;100178.50;4968443;28;20034;-31
2022/03/31 05:24:09;;;;;;;10.07;5.43;;;;;;;2.25;95.82;100173.75;4968789;28;20045;-30
2022/03/31 05:26:34;;;;;;;14.93;6.13;;;;;;;2.28;96.28;100179.59;4969965;28;20455;-30
2022/03/31 05:29:00;;;;;;;13.23;6.28;;;;;;;2.28;96.30;100174.28;4969783;28;20117;-31
2022/03/31 05:31:25;;;;;;;17.40;6.43;;;;;;;2.25;95.81;100169.28;4970205;28;20700;-31
2022/03/31 05:33:51;;;;;;;12.27;6.10;;;;;;;2.28;96.07;100171.63;4969584;28;20168;-30
2022/03/31 05:36:16;;;;;;;13.95;6.05;;;;;;;2.16;95.73;100159.53;4970092;28;20083;-30
2022/03/31 05:38:41;;;;;;;11.73;5.70;;;;;;;2.17;95.42;100166.50;4969856;28;20026;-29
2022/03/31 05:41:07;;;;;;;9.40;6.00;;;;;;;2.13;95.59;100160.66;4970234;28;20139;-30
2022/03/31 05:43:32;;;;;;;17.95;6.38;;;;;;;2.12;95.87;100161.63;4969631;28;20032;-31
2022/03/31 05:45:58;;;;;;;18.27;5.38;;;;;;;2.15;95.79;100157.84;4968526;28;20030;-30
2022/03/31 05:48:23;;;;;;;12.25;5.60;;;;;;;2.18;96.05;100158.38;4969562;28;20477;-29
2022/03/31 05:50:48;;;;;;;14.50;5.38;;;;;;;2.19;95.77;100154.78;4969408;28;20031;-31
2022/03/31 05:53:14;;;;;;;13.52;5.95;;;;;;;2.18;95.41;100157.56;4968120;28;20030;-29
2022/03/31 05:55:43;;;;;;;14.48;5.00;;;;;;;2.19;95.79;100161.91;4969661;28;20531;-29
2022/03/31 05:58:09;;;;;;;13.60;5.63;;;;;;;2.16;95.68;100154.22;4968398;28;20062;-31
2022/03/31 06:00:34;;;;;;;21.25;5.80;;;;;;;2.21;95.71;100151.94;4969371;28;20456;-30
2022/03/31 06:02:59;;;;;;;14.65;5.32;;;;;;;2.25;96.01;100157.81;4969169;28;20473;-29
2022/03/31 06:05:25;;;;;;;11.55;5.03;;;;;;;2.26;95.67;100149.69;4968726;28;20046;-31
2022/03/31 06:07:53;;;;;;;9.80;5.18;;;;;;;2.32;95.59;100149.13;4968662;28;20248;-31
2022/03/31 06:10:19;;;;;;;12.52;4.75;;;;;;;2.32;95.94;100149.13;4967653;28;20038;-32
2022/03/31 06:12:45;;;;;;;17.10;4.45;;;;;;;2.41;95.33;100152.72;4968471;28;20083;-30
2022/03/31 06:15:11;;;;;;;10.63;4.72;;;;;;;2.45;95.51;100156.78;4963730;28;20034;-29
2022/03/31 06:17:40;;;;;;;7.47;4.28;;;;;;;2.49;95.43;100157.31;4948841;28;20027;-29
2022/03/31 06:20:07;;;;;;;9.32;4.50;;;;;;;2.53;95.22;100156.88;4948569;29;20031;-30
2022/03/31 06:22:33;;;;;;;11.50;5.45;;;;;;;2.66;95.15;100158.34;4950201;28;20027;-30
2022/03/31 06:24:58;;;;;;;7.82;4.20;;;;;;;2.72;95.02;100150.63;4948642;29;20397;-29
2022/03/31 06:27:23;;;;;;;9.02;4.30;;;;;;;2.79;94.98;100151.72;4950471;28;20381;-30
2022/03/31 06:29:49;;;;;;;15.68;4.28;;;;;;;2.88;94.80;100149.16;4949979;29;20494;-30
2022/03/31 06:32:15;;;;;;;9.80;4.22;;;;;;;2.96;94.26;100152.72;4967210;28;20457;-29
2022/03/31 06:34:41;;;;;;;11.15;4.45;;;;;;;3.01;94.01;100157.59;4967814;28;20481;-28
2022/03/31 06:37:07;;;;;;;10.68;3.83;;;;;;;3.03;92.91;100158.28;4969581;28;20035;-31
2022/03/31 06:39:32;;;;;;;9.43;3.22;;;;;;;3.17;92.92;100157.75;4969363;28;20031;-28
2022/03/31 06:41:58;;;;;;;10.63;3.67;;;;;;;3.22;91.75;100152.81;4969363;28;20054;-30
2022/03/31 06:44:23;;;;;;;12.85;4.30;;;;;;;3.46;91.92;100167.34;4968912;28;20027;-29
2022/03/31 06:46:49;;;;;;;6.22;3.47;;;;;;;3.68;91.60;100169.50;4969273;28;20038;-31
2022/03/31 06:49:14;;;;;;;8.30;3.75;;;;;;;3.82;90.77;100161.97;4968935;28;20096;-29
2022/03/31 06:51:43;;;;;;;14.77;3.45;;;;;;;3.96;89.57;100164.09;4969502;28;20033;-29
2022/03/31 06:54:09;;;;;;;12.40;3.92;;;;;;;4.47;90.52;100159.72;4967216;28;20041;-29
2022/03/31 06:56:35;;;;;;;13.20;3.65;;;;;;;4.79;88.84;100159.03;4967750;28;20034;-30
2022/03/31 06:59:01;;;;;;;12.98;3.17;;;;;;;4.72;85.17;100155.34;4968360;28;20102;-31
2022/03/31 07:01:26;;;;;;;7.65;3.00;;;;;;;4.55;83.16;100159.75;4968570;28;20385;-29
2022/03/31 07:03:51;;;;;;;10.20;3.35;;;;;;;4.42;83.18;100156.69;4966236;28;20147;-30
2022/03/31 07:06:18;;;;;;;9.95;3.08;;;;;;;4.33;83.20;100162.97;4967722;28;20062;-28
2022/03/31 07:08:43;;;;;;;9.48;3.03;;;;;;;4.32;83.90;100171.97;4967541;28;20030;-30
2022/03/31 07:11:09;;;;;;;8.68;3.30;;;;;;;4.41;84.28;100168.34;4968313;28;20558;-29
2022/03/31 07:13:35;;;;;;;7.75;3.05;;;;;;;4.44;83.57;100165.38;4967891;28;20031;-29
2022/03/31 07:16:01;;;;;;;10.13;3.20;;;;;;;4.47;83.65;100166.88;4967904;28;20137;-29
2022/03/31 07:18:26;;;;;;;7.60;3.00;;;;;;;4.47;83.76;100162.38;4967055;28;20026;-29
2022/03/31 07:20:52;;;;;;;7.28;2.92;;;;;;;4.44;83.26;100164.53;4968276;28;20038;-29
2022/03/31 07:23:18;;;;;;;12.75;3.72;;;;;;;4.42;83.42;100166.50;4968289;28;20031;-30
2022/03/31 07:25:44;;;;;;;7.07;3.05;;;;;;;4.37;84.02;100170.50;4968273;28;20034;-29
2022/03/31 07:28:09;;;;;;;6.60;3.03;;;;;;;4.42;83.77;100164.69;4968732;28;20422;-29
2022/03/31 07:30:34;;;;;;;8.20;2.83;;;;;;;4.50;84.12;100164.75;4968224;28;20032;-30
2022/03/31 07:33:03;;;;;;;7.95;3.10;;;;;;;4.49;83.77;100163.06;4968357;28;20052;-30
2022/03/31 07:35:30;;;;;;;5.20;3.10;;;;;;;4.56;83.26;100166.75;4966714;28;20424;-29
2022/03/31 07:37:56;;;;;;;4.43;3.00;;;;;;;4.67;83.36;100164.81;4968377;28;20035;-30
2022/03/31 07:40:23;;;;;;;11.85;3.53;;;;;;;4.76;83.16;100169.16;4968248;28;20641;-30
2022/03/31 07:42:49;;;;;;;7.10;3.20;;;;;;;4.84;82.79;100166.53;4967979;28;20148;-30
2022/03/31 07:45:15;;;;;;;7.93;3.83;;;;;;;4.92;83.12;100163.06;4968286;28;20113;-31
2022/03/31 07:47:42;;;;;;;6.55;3.53;;;;;;;4.87;81.97;100163.56;4966103;28;20034;-29
2022/03/31 07:50:09;;;;;;;12.75;4.97;;;;;;;4.82;81.60;100158.72;4968368;28;20034;-30
2022/03/31 07:52:40;;;;;;;10.90;5.90;;;;;;;4.92;82.27;100150.56;4968207;28;20034;-29
2022/03/31 07:55:08;;;;;;;17.30;6.43;;;;;;;5.03;81.75;100154.78;4967954;28;20101;-29
2022/03/31 07:57:33;;;;;;;14.43;5.75;;;;;;;5.13;80.18;100150.09;4967161;28;20042;-31
2022/03/31 07:59:59;;;;;;;13.35;6.15;;;;;;;5.13;81.16;100143.94;4967593;28;20165;-28
2022/03/31 08:02:25;;;;;;;11.40;5.35;;;;;;;5.13;80.44;100144.78;4967582;28;20431;-29
2022/03/31 08:04:51;;;;;;;14.20;5.50;;;;;;;5.13;79.92;100150.09;4966487;28;20031;-30
2022/03/31 08:07:16;;;;;;;9.63;4.90;;;;;;;5.19;79.88;100145.97;4967759;28;20059;-29
2022/03/31 08:09:42;;;;;;;16.13;6.30;;;;;;;5.26;80.26;100138.97;4966677;28;20175;-30
2022/03/31 08:12:07;;;;;;;9.95;4.82;;;;;;;5.34;79.85;100144.31;4967324;28;20673;-30
2022/03/31 08:14:33;;;;;;;11.80;4.90;;;;;;;5.33;78.41;100145.31;4967016;28;20038;-29
2022/03/31 08:16:58;;;;;;;6.30;4.85;;;;;;;5.42;78.88;100144.31;4970076;28;20042;-30
2022/03/31 08:19:23;;;;;;;15.98;5.55;;;;;;;5.48;78.19;100141.00;4969615;28;20045;-30
2022/03/31 08:21:49;;;;;;;7.88;5.07;;;;;;;5.58;78.48;100140.84;4971188;28;20054;-31
2022/03/31 08:24:15;;;;;;;11.60;4.78;;;;;;;5.70;78.18;100152.00;4971135;28;20039;-29
2022/03/31 08:26:41;;;;;;;9.38;4.32;;;;;;;5.69;76.75;100135.16;4970989;28;20084;-30
2022/03/31 08:29:08;;;;;;;12.60;4.70;;;;;;;5.66;77.37;100142.66;4965581;28;20031;-29
2022/03/31 08:31:34;;;;;;;4.70;3.88;;;;;;;5.65;77.89;100143.66;4951151;28;20130;-30
2022/03/31 08:34:00;;;;;;;12.50;4.07;;;;;;;5.73;77.38;100138.31;4950501;29;20035;-29
2022/03/31 08:36:25;;;;;;;5.75;3.50;;;;;;;5.78;77.30;100146.66;4952642;28;20066;-30
2022/03/31 08:38:51;;;;;;;8.20;3.60;;;;;;;5.86;77.08;100146.66;4951730;28;20466;-29
2022/03/31 08:41:19;;;;;;;5.80;3.20;;;;;;;5.83;76.51;100141.66;4968925;28;20061;-29
2022/03/31 08:43:44;;;;;;;;;;;;;;;5.97;76.01;100140.16;4970276;28;20019;-30
2022/03/31 08:46:10;;;;;;;5.32;3.13;;;;;;;5.93;75.23;100142.34;4954878;28;20373;-29
2022/03/31 08:48:38;;;;;;;6.35;3.53;;;;;;;5.96;76.06;100140.34;4951465;28;20031;-30
2022/03/31 08:51:04;;;;;;;5.93;2.67;;;;;;;5.78;75.79;100144.00;4960760;28;20039;-30
2022/03/31 08:53:31;;;;;;;5.25;3.15;;;;;;;5.71;75.02;100140.31;4961655;28;20110;-29
2022/03/31 08:55:56;;;;;;;5.80;2.40;;;;;;;5.76;76.20;100139.81;4970085;28;20039;-30
2022/03/31 08:58:22;;;;;;;5.15;2.97;;;;;;;5.71;76.52;100142.97;4960494;28;20050;-29
2022/03/31 09:00:47;;;;;;;5.93;2.80;;;;;;;5.58;75.83;100142.66;4961781;28;20051;-29
2022/03/31 09:03:12;;;;;;;5.63;2.72;;;;;;;5.36;76.69;100138.81;4963884;28;20104;-29
2022/03/31 09:05:43;;;;;;;6.50;2.70;;;;;;;5.21;77.11;100142.16;4970304;28;20105;-30
2022/03/31 09:08:13;;;;;;;4.70;2.90;;;;;;;5.07;78.06;100154.25;4970803;28;20094;-29
2022/03/31 09:10:44;;;;;;;7.53;3.13;;;;;;;4.92;78.40;100150.56;4970134;28;20034;-30
2022/03/31 09:13:24;;;;;;;6.20;3.35;;;;;;;4.81;77.71;100151.69;4951642;28;20031;-30
2022/03/31 09:16:02;;;;;;;6.30;2.88;;;;;;;4.82;78.76;100149.88;4970628;28;20382;-30
2022/03/31 09:18:30;;;;;;;5.93;2.65;;;;;;;4.85;79.45;100152.22;4970200;28;20034;-28
2022/03/31 09:20:58;;;;;;;6.22;2.60;;;;;;;5.10;80.75;100138.94;4969077;28;20034;-29
2022/03/31 09:23:29;;;;;;;7.00;3.10;;;;;;;5.93;80.40;100141.47;4970296;28;20039;-30
2022/03/31 09:26:08;;;;;;;5.15;2.38;;;;;;;6.44;74.79;100143.91;4968969;28;20035;-30
2022/03/31 09:28:34;;;;;;;3.47;1.65;;;;;;;6.80;73.06;100139.72;4950733;28;20028;-30
2022/03/31 09:30:59;;;;;;;8.38;2.50;;;;;;;7.26;71.48;100155.84;4962425;28;20041;-29
2022/03/31 09:33:33;;;;;;;4.45;1.70;;;;;;;8.18;67.82;100149.56;4970233;28;20023;-31
2022/03/31 09:36:07;;;;;;;4.05;2.03;;;;;;;8.05;66.15;100144.81;4970053;28;20030;-28
2022/03/31 09:38:38;;;;;;;3.90;2.00;;;;;;;7.84;67.34;100139.34;4941832;28;20039;-29
2022/03/31 09:41:16;;;;;;;3.67;2.00;;;;;;;8.18;68.44;100143.38;4949381;28;20039;-28
2022/03/31 09:43:42;;;;;;;3.45;1.75;;;;;;;8.65;64.27;100128.81;4966316;28;20023;-28
2022/03/31 09:46:27;;;;;;;2.08;1.60;;;;;;;8.39;63.80;100135.47;4969485;28;20038;-28
2022/03/31 09:48:54;;;;;;;1.58;1.40;;;;;;;8.05;65.08;100131.44;4968287;28;20027;-29
2022/03/31 09:51:22;;;;;;;3.20;1.42;;;;;;;7.84;64.81;100140.16;4968508;28;20031;-29
2022/03/31 09:53:49;;;;;;;2.08;1.73;;;;;;;7.64;66.31;100134.50;4969614;28;20034;-29
2022/03/31 09:56:20;;;;;;;7.55;1.60;;;;;;;7.43;64.80;100129.81;4969439;28;20035;-30
2022/03/31 09:58:46;;;;;;;3.20;1.75;;;;;;;8.19;65.21;100128.94;4963791;28;20151;-28
2022/03/31 10:01:16;;;;;;;1.88;1.70;;;;;;;8.93;63.27;100145.88;4960904;28;20034;-29
2022/03/31 10:03:42;;;;;;;1.55;1.45;;;;;;;9.78;58.94;100136.19;4970176;28;20041;-29
2022/03/31 10:06:08;;;;;;;2.50;1.38;;;;;;;9.68;57.24;100130.31;4969343;28;20027;-29
2022/03/31 10:08:37;;;;;;;1.95;1.60;;;;;;;9.17;56.90;100133.13;4970312;28;20109;-29
2022/03/31 10:11:04;;;;;;;2.72;1.80;;;;;;;8.74;58.98;100133.03;4970030;28;20367;-29
2022/03/31 10:13:36;;;;;;;1.90;1.70;;;;;;;8.57;61.16;100125.19;4967395;28;20104;-28
2022/03/31 10:16:09;;;;;;;1.85;1.55;;;;;;;8.37;59.56;100124.06;4970096;28;20092;-31
2022/03/31 10:18:35;;;;;;;3.08;1.75;;;;;;;8.21;61.46;100121.56;5049764;28;20041;-29
2022/03/31 10:21:01;;;;;;;3.85;2.10;;;;;;;8.09;61.04;100124.69;5049528;28;20348;-29
2022/03/31 10:26:25;;;;;;;2.50;1.90;;;;;;;8.13;62.81;100123.31;5051125;28;20044;-29
2022/03/31 10:28:55;;;;;;;6.80;1.80;;;;;;;8.53;61.68;100121.22;5022595;28;20385;-29
2022/03/31 10:31:20;;;;;;;3.40;2.25;;;;;;;8.76;59.87;100109.53;4968358;28;20041;-29
2022/03/31 10:33:51;;;;;;;5.63;2.30;;;;;;;9.13;60.78;100105.00;4965713;28;20022;-30
2022/03/31 10:36:19;;;;;;;3.63;2.00;;;;;;;9.70;60.62;100106.78;4969057;28;20023;-28
2022/03/31 10:38:57;;;;;;;1.92;1.83;;;;;;;10.78;54.66;100104.56;4968287;28;20125;-30
2022/03/31 10:41:36;;;;;;;6.03;1.83;;;;;;;11.37;52.55;100101.19;4958294;28;20031;-30
2022/03/31 10:44:04;;;;;;;2.67;1.80;;;;;;;12.05;50.56;100103.69;4949870;28;20370;-29
2022/03/31 10:46:32;;;;;;;1.80;1.70;;;;;;;12.17;48.46;100103.88;4997857;28;20029;-30
2022/03/31 10:48:58;;;;;;;2.92;1.85;;;;;;;11.75;52.62;100105.16;5050656;28;20325;-29
2022/03/31 10:51:34;;;;;;;2.47;1.70;;;;;;;11.21;52.32;100097.00;5030295;28;20034;-31
2022/03/31 10:54:00;;;;;;;3.90;1.70;;;;;;;10.69;51.76;100101.22;4956396;28;20026;-30
2022/03/31 10:56:28;;;;;;;1.88;1.70;;;;;;;10.05;55.81;100106.81;4967553;28;20031;-31
2022/03/31 10:58:57;;;;;;;;;;;;;;;9.80;54.88;100093.00;4969374;28;20035;-30
2022/03/31 11:01:26;;;;;;;4.55;1.83;;;;;;;9.58;56.03;100092.19;4967977;28;19933;-29
2022/03/31 11:04:05;;;;;;;2.70;1.65;;;;;;;9.32;57.18;100093.63;4966957;28;20054;-28
2022/03/31 11:06:31;;;;;;;4.32;2.20;;;;;;;9.19;57.50;100088.13;4962621;28;20267;-28
2022/03/31 11:08:56;;;;;;;2.42;1.77;;;;;;;8.93;58.54;100077.97;4949330;28;20502;-29
2022/03/31 11:11:29;;;;;;;3.13;2.08;;;;;;;8.66;58.26;100087.53;4959591;28;20106;-30
2022/03/31 11:13:56;;;;;;;4.35;2.00;;;;;;;8.44;60.50;100087.47;4961229;28;20068;-28
2022/03/31 11:16:22;;;;;;;3.72;2.28;;;;;;;8.25;60.65;100085.34;4968132;28;20090;-29
2022/03/31 11:18:55;;;;;;;4.28;1.90;;;;;;;8.08;61.86;100082.84;4965084;28;20461;-28
2022/03/31 11:21:21;;;;;;;3.05;2.28;;;;;;;7.91;61.65;100087.53;4949284;28;20027;-28
2022/03/31 11:23:47;;;;;;;3.75;2.20;;;;;;;7.81;61.53;100078.09;4950429;28;20038;-28
2022/03/31 11:26:24;;;;;;;3.10;2.80;;;;;;;7.74;62.45;100082.50;4965755;28;20074;-29
2022/03/31 11:28:49;;;;;;;4.60;2.70;;;;;;;7.65;62.49;100069.19;4962000;28;20050;-29
2022/03/31 11:31:17;;;;;;;6.22;2.25;;;;;;;7.77;63.00;100071.47;4949381;29;20106;-29
2022/03/31 11:33:44;;;;;;;4.05;2.90;;;;;;;7.89;62.68;100064.63;4969625;28;20046;-30